KHEZ/HEZ METAR and TAF weather

Enter ICAO airport designator
Station Type Date Time Source
KHEZ METAR 2021/01/22 06:12 UTC NOAA

KHEZ 220612Z AUTO 25003KT 8SM RA FEW004 SCT046 OVC070 14/14 A2994 RMK AO2 P0004


Station Type Date Time Source
KHEZ Decoded METAR 2021/01/22 06:12 UTC NOAA

Natchez, Hardy-Anders Field Natchez-Adams County Airport, MS, United States (KHEZ) 31-37N 091-18W
Jan 22, 2021 - 01:12 AM EST / 2021.01.22 0612 UTC
Wind: from the WSW (250 degrees) at 3 MPH (3 KT):0
Visibility: 8 mile(s):0
Sky conditions: overcast
Weather: rain
Precipitation last hour: 0.04 inches
Temperature: 57 F (14 C)
Dew Point: 57 F (14 C)
Relative Humidity: 100%
Pressure (altimeter): 29.94 in. Hg (1013 hPa)
ob: KHEZ 220612Z AUTO 25003KT 8SM RA FEW004 SCT046 OVC070 14/14 A2994 RMK AO2 P0004
cycle: 6

Station Type Date Time Source
KHEZ TAF UTC NOAA

Error!

Example: see airport list